Página principal
METAR-TAF:

METAR-TAF

Aeroportos :

Aeroporto Internacional Philip S. W. Goldson

Belize, Belize

latitude: 17-32N, longitude: 088-18W, altura: 5 m

Observação actual do tempo

O boletim foi feito há 18 minutos, às 23:00 UTC
Vento 7 kt de este
Temperatura 29°C
Humidade 74%
Pressão 1014 hPa
Visibilidade 10 km ou mais
Poucas nuvensa uma altura de 2100 ft

METAR: MZBZ 162300Z 09007KT 9999 FEW021 29/24 A2996 Q1014 NOSIG

Hora: 17:18 (23:18 UTC)

Previsão

O boletim foi feito há 8 horas e 18 minutos, às 15:00 UTC
Previsão válida de 16 às 18 UTC a 17 às 18 UTC
Vento 7 kt de este
Visibilidade 10 km ou mais
Nuvens dispersasa uma altura de 2300 ft
Probabilidade 40% :
Temporariamente
de 17 às 09 UTC a 17 às 18 UTC
Visibilidade: 4000 m
Nuvens dispersasa uma altura de 1200 ft, Cumulonimbus.
Nuvens fragmentadasa uma altura de 4000 ft
trovoada, chuva

TAF: MZBZ 161500Z 1618/1718 09007KT 9999 SCT023 PROB40 TEMPO 1709/1718 4000 TSRA SCT012CB BKN040

Observações e previsões do tempo de mais de 4000 aeroportos (mensagens METAR e TAF).

As estações disponíveis são os pontos amarelos e vermelhos sobre o mapa.

Mova o rato sobre o mapa para ver o nome da estação.

Depois clique no ponto para visualizar as observações e previsões meteorológicas.

Para alterar o mapa : clique nos botões verdes com uma cruz preta para aumentar o zoom; no botão verde com uma pitada de zoom; ou nas setas verdes para mapas adjacentes.


METAR-TAF: